sensor_id;sensor_type;location;lat;lon;timestamp;temperature;humidity
72576;DHT22;60613;48.658;2.328;2023-03-01T08:28:37;19.30;27.00
72576;DHT22;60613;48.658;2.328;2023-03-01T08:31:03;19.40;26.80
72576;DHT22;60613;48.658;2.328;2023-03-01T08:33:37;19.50;26.60
72576;DHT22;60613;48.658;2.328;2023-03-01T08:36:04;19.60;27.20
72576;DHT22;60613;48.658;2.328;2023-03-01T08:38:35;19.60;26.00
72576;DHT22;60613;48.658;2.328;2023-03-01T08:41:02;19.70;25.80
72576;DHT22;60613;48.658;2.328;2023-03-01T08:43:28;19.80;25.70
72576;DHT22;60613;48.658;2.328;2023-03-01T08:45:54;19.90;25.50
72576;DHT22;60613;48.658;2.328;2023-03-01T08:48:20;20.00;25.40
72576;DHT22;60613;48.658;2.328;2023-03-01T08:50:45;20.10;25.30
72576;DHT22;60613;48.658;2.328;2023-03-01T08:53:11;20.20;25.20
72576;DHT22;60613;48.658;2.328;2023-03-01T08:55:36;20.20;25.10
72576;DHT22;60613;48.658;2.328;2023-03-01T08:58:02;20.30;25.00
72576;DHT22;60613;48.658;2.328;2023-03-01T09:00:28;20.40;25.00
72576;DHT22;60613;48.658;2.328;2023-03-01T09:02:53;20.40;24.90
72576;DHT22;60613;48.658;2.328;2023-03-01T09:05:19;20.50;24.80
72576;DHT22;60613;48.658;2.328;2023-03-01T09:07:44;20.60;24.90
72576;DHT22;60613;48.658;2.328;2023-03-01T09:10:10;20.60;24.80
72576;DHT22;60613;48.658;2.328;2023-03-01T09:12:36;20.60;24.80
72576;DHT22;60613;48.658;2.328;2023-03-01T09:15:02;20.70;24.70
72576;DHT22;60613;48.658;2.328;2023-03-01T09:17:27;20.80;24.60
72576;DHT22;60613;48.658;2.328;2023-03-01T09:19:53;20.80;24.50
72576;DHT22;60613;48.658;2.328;2023-03-01T09:22:18;20.90;24.40
72576;DHT22;60613;48.658;2.328;2023-03-01T09:24:44;20.90;24.30
72576;DHT22;60613;48.658;2.328;2023-03-01T09:27:09;21.00;24.20
72576;DHT22;60613;48.658;2.328;2023-03-01T09:29:36;21.00;24.10
72576;DHT22;60613;48.658;2.328;2023-03-01T09:32:02;21.10;24.20
72576;DHT22;60613;48.658;2.328;2023-03-01T09:34:28;21.20;24.10
72576;DHT22;60613;48.658;2.328;2023-03-01T09:36:53;21.20;24.00
72576;DHT22;60613;48.658;2.328;2023-03-01T09:39:20;21.30;24.00
72576;DHT22;60613;48.658;2.328;2023-03-01T09:41:57;21.30;23.90
72576;DHT22;60613;48.658;2.328;2023-03-01T09:47:25;21.40;23.90
72576;DHT22;60613;48.658;2.328;2023-03-01T09:55:54;21.60;23.70
72576;DHT22;60613;48.658;2.328;2023-03-01T10:00:37;21.60;23.60
72576;DHT22;60613;48.658;2.328;2023-03-01T10:03:57;21.70;23.50
72576;DHT22;60613;48.658;2.328;2023-03-01T10:10:55;21.80;23.40
72576;DHT22;60613;48.658;2.328;2023-03-01T10:13:41;21.80;23.40
72576;DHT22;60613;48.658;2.328;2023-03-01T10:16:16;21.80;23.40
72576;DHT22;60613;48.658;2.328;2023-03-01T10:18:45;21.90;23.50
72576;DHT22;60613;48.658;2.328;2023-03-01T10:21:19;21.90;23.50
72576;DHT22;60613;48.658;2.328;2023-03-01T10:23:45;21.90;23.40
72576;DHT22;60613;48.658;2.328;2023-03-01T10:26:23;22.00;23.40
72576;DHT22;60613;48.658;2.328;2023-03-01T10:29:03;22.00;23.40
72576;DHT22;60613;48.658;2.328;2023-03-01T10:31:53;22.00;23.30
72576;DHT22;60613;48.658;2.328;2023-03-01T10:34:28;22.00;23.30
72576;DHT22;60613;48.658;2.328;2023-03-01T10:36:57;22.10;23.30
72576;DHT22;60613;48.658;2.328;2023-03-01T10:39:24;22.10;23.20
72576;DHT22;60613;48.658;2.328;2023-03-01T10:41:56;22.10;23.20
72576;DHT22;60613;48.658;2.328;2023-03-01T10:44:42;22.10;23.10
72576;DHT22;60613;48.658;2.328;2023-03-01T10:47:23;22.10;23.10
72576;DHT22;60613;48.658;2.328;2023-03-01T10:50:04;22.20;23.60
72576;DHT22;60613;48.658;2.328;2023-03-01T10:52:36;22.20;23.80
72576;DHT22;60613;48.658;2.328;2023-03-01T10:57:39;22.20;24.10
72576;DHT22;60613;48.658;2.328;2023-03-01T11:02:48;22.40;24.30
72576;DHT22;60613;48.658;2.328;2023-03-01T11:05:20;22.40;24.20
72576;DHT22;60613;48.658;2.328;2023-03-01T11:08:00;22.50;24.40
72576;DHT22;60613;48.658;2.328;2023-03-01T11:10:28;22.50;24.20
72576;DHT22;60613;48.658;2.328;2023-03-01T11:13:23;22.50;24.10
72576;DHT22;60613;48.658;2.328;2023-03-01T11:16:03;22.50;24.30
72576;DHT22;60613;48.658;2.328;2023-03-01T11:18:31;22.60;25.70
72576;DHT22;60613;48.658;2.328;2023-03-01T11:20:58;22.60;25.60
72576;DHT22;60613;48.658;2.328;2023-03-01T11:23:27;22.70;25.90
72576;DHT22;60613;48.658;2.328;2023-03-01T11:25:56;22.80;25.20
72576;DHT22;60613;48.658;2.328;2023-03-01T11:28:22;22.80;24.80
72576;DHT22;60613;48.658;2.328;2023-03-01T11:31:07;22.70;24.70
72576;DHT22;60613;48.658;2.328;2023-03-01T11:36:24;22.60;24.40
72576;DHT22;60613;48.658;2.328;2023-03-01T11:38:53;22.60;24.20
72576;DHT22;60613;48.658;2.328;2023-03-01T11:41:26;22.60;24.20
72576;DHT22;60613;48.658;2.328;2023-03-01T12:00:03;22.60;24.00
72576;DHT22;60613;48.658;2.328;2023-03-01T12:05:20;22.60;24.50
72576;DHT22;60613;48.658;2.328;2023-03-01T12:10:56;22.60;25.00
72576;DHT22;60613;48.658;2.328;2023-03-01T12:16:28;22.70;25.80
72576;DHT22;60613;48.658;2.328;2023-03-01T12:19:23;22.70;26.50
72576;DHT22;60613;48.658;2.328;2023-03-01T12:27:24;22.80;26.40
72576;DHT22;60613;48.658;2.328;2023-03-01T12:38:42;23.10;25.90
72576;DHT22;60613;48.658;2.328;2023-03-01T12:41:23;23.10;25.50
72576;DHT22;60613;48.658;2.328;2023-03-01T12:44:08;23.10;25.80
72576;DHT22;60613;48.658;2.328;2023-03-01T12:49:24;23.10;26.00
72576;DHT22;60613;48.658;2.328;2023-03-01T12:51:56;23.00;26.20
72576;DHT22;60613;48.658;2.328;2023-03-01T12:54:31;23.00;26.10
72576;DHT22;60613;48.658;2.328;2023-03-01T12:57:02;23.00;25.80
72576;DHT22;60613;48.658;2.328;2023-03-01T12:59:34;23.10;26.10
72576;DHT22;60613;48.658;2.328;2023-03-01T13:04:41;23.20;26.20
72576;DHT22;60613;48.658;2.328;2023-03-01T13:10:06;23.30;25.90
72576;DHT22;60613;48.658;2.328;2023-03-01T13:15:24;23.30;25.40
72576;DHT22;60613;48.658;2.328;2023-03-01T13:17:59;23.30;25.50
72576;DHT22;60613;48.658;2.328;2023-03-01T13:20:32;23.30;26.00
72576;DHT22;60613;48.658;2.328;2023-03-01T13:23:22;23.30;25.70
72576;DHT22;60613;48.658;2.328;2023-03-01T13:33:58;23.30;25.60
72576;DHT22;60613;48.658;2.328;2023-03-01T13:39:31;23.40;25.30
72576;DHT22;60613;48.658;2.328;2023-03-01T13:42:34;23.40;25.50
72576;DHT22;60613;48.658;2.328;2023-03-01T13:45:03;23.40;25.90
72576;DHT22;60613;48.658;2.328;2023-03-01T13:47:38;23.40;25.70
72576;DHT22;60613;48.658;2.328;2023-03-01T13:50:04;23.40;25.90
72576;DHT22;60613;48.658;2.328;2023-03-01T13:52:48;23.40;25.10
72576;DHT22;60613;48.658;2.328;2023-03-01T13:58:33;23.40;24.80
72576;DHT22;60613;48.658;2.328;2023-03-01T14:01:24;23.40;24.50
72576;DHT22;60613;48.658;2.328;2023-03-01T14:03:50;23.40;24.40
72576;DHT22;60613;48.658;2.328;2023-03-01T14:06:20;23.40;24.30
72576;DHT22;60613;48.658;2.328;2023-03-01T14:08:49;23.50;24.20
72576;DHT22;60613;48.658;2.328;2023-03-01T14:19:36;23.40;26.60
72576;DHT22;60613;48.658;2.328;2023-03-01T14:22:23;23.40;26.50
72576;DHT22;60613;48.658;2.328;2023-03-01T14:27:20;23.30;26.60
72576;DHT22;60613;48.658;2.328;2023-03-01T14:30:02;23.40;26.10
72576;DHT22;60613;48.658;2.328;2023-03-01T14:32:30;23.30;26.10
72576;DHT22;60613;48.658;2.328;2023-03-01T14:34:57;23.20;25.70
72576;DHT22;60613;48.658;2.328;2023-03-01T14:37:32;23.20;26.20
72576;DHT22;60613;48.658;2.328;2023-03-01T14:40:00;23.20;26.00
72576;DHT22;60613;48.658;2.328;2023-03-01T14:42:31;23.00;26.00
72576;DHT22;60613;48.658;2.328;2023-03-01T14:45:01;23.00;25.40
72576;DHT22;60613;48.658;2.328;2023-03-01T14:47:32;23.00;26.40
72576;DHT22;60613;48.658;2.328;2023-03-01T14:50:03;23.00;26.40
72576;DHT22;60613;48.658;2.328;2023-03-01T14:52:36;23.00;26.20
72576;DHT22;60613;48.658;2.328;2023-03-01T14:55:13;23.00;26.40
72576;DHT22;60613;48.658;2.328;2023-03-01T14:57:44;23.00;26.40
72576;DHT22;60613;48.658;2.328;2023-03-01T15:00:21;23.00;26.00
72576;DHT22;60613;48.658;2.328;2023-03-01T15:02:49;22.90;25.90
72576;DHT22;60613;48.658;2.328;2023-03-01T15:05:15;22.90;26.00
72576;DHT22;60613;48.658;2.328;2023-03-01T15:07:44;22.90;25.50
72576;DHT22;60613;48.658;2.328;2023-03-01T15:10:25;23.00;25.80
72576;DHT22;60613;48.658;2.328;2023-03-01T15:12:51;23.00;26.00
72576;DHT22;60613;48.658;2.328;2023-03-01T15:17:52;22.90;25.80
72576;DHT22;60613;48.658;2.328;2023-03-01T15:20:20;23.00;25.90
72576;DHT22;60613;48.658;2.328;2023-03-01T15:22:53;23.00;25.70
72576;DHT22;60613;48.658;2.328;2023-03-01T15:25:23;22.90;25.30
72576;DHT22;60613;48.658;2.328;2023-03-01T15:27:51;22.90;25.80
72576;DHT22;60613;48.658;2.328;2023-03-01T15:30:23;22.90;25.40
72576;DHT22;60613;48.658;2.328;2023-03-01T15:35:51;22.90;25.60
72576;DHT22;60613;48.658;2.328;2023-03-01T15:40:54;22.90;25.50
72576;DHT22;60613;48.658;2.328;2023-03-01T15:43:42;22.90;25.20
72576;DHT22;60613;48.658;2.328;2023-03-01T15:46:20;22.90;25.50
72576;DHT22;60613;48.658;2.328;2023-03-01T15:48:49;22.90;25.30
72576;DHT22;60613;48.658;2.328;2023-03-01T15:51:19;22.90;25.20
72576;DHT22;60613;48.658;2.328;2023-03-01T15:53:51;22.90;25.10
72576;DHT22;60613;48.658;2.328;2023-03-01T15:56:18;22.90;25.10
72576;DHT22;60613;48.658;2.328;2023-03-01T15:58:44;22.90;25.30
72576;DHT22;60613;48.658;2.328;2023-03-01T16:01:14;22.80;25.00
72576;DHT22;60613;48.658;2.328;2023-03-01T16:03:42;22.90;25.00
72576;DHT22;60613;48.658;2.328;2023-03-01T16:06:09;22.90;25.20
72576;DHT22;60613;48.658;2.328;2023-03-01T16:08:36;23.00;25.00
72576;DHT22;60613;48.658;2.328;2023-03-01T16:11:04;22.90;25.20
72576;DHT22;60613;48.658;2.328;2023-03-01T16:13:31;22.90;25.00
72576;DHT22;60613;48.658;2.328;2023-03-01T16:15:58;22.90;25.00
72576;DHT22;60613;48.658;2.328;2023-03-01T16:18:24;22.90;24.90
72576;DHT22;60613;48.658;2.328;2023-03-01T16:20:49;22.90;25.00
72576;DHT22;60613;48.658;2.328;2023-03-01T16:23:15;22.90;25.00
72576;DHT22;60613;48.658;2.328;2023-03-01T16:25:41;22.90;25.10
72576;DHT22;60613;48.658;2.328;2023-03-01T16:28:07;22.90;25.10
72576;DHT22;60613;48.658;2.328;2023-03-01T16:30:37;22.90;25.00
72576;DHT22;60613;48.658;2.328;2023-03-01T16:33:04;22.90;25.20
72576;DHT22;60613;48.658;2.328;2023-03-01T16:35:38;22.80;26.00
72576;DHT22;60613;48.658;2.328;2023-03-01T16:38:04;22.80;25.10
72576;DHT22;60613;48.658;2.328;2023-03-01T16:40:29;22.80;25.20
72576;DHT22;60613;48.658;2.328;2023-03-01T16:42:56;22.80;25.10
72576;DHT22;60613;48.658;2.328;2023-03-01T16:45:28;22.80;25.10
72576;DHT22;60613;48.658;2.328;2023-03-01T16:47:57;22.80;25.20
72576;DHT22;60613;48.658;2.328;2023-03-01T16:50:24;22.80;24.90
72576;DHT22;60613;48.658;2.328;2023-03-01T16:52:50;22.80;25.00
72576;DHT22;60613;48.658;2.328;2023-03-01T16:55:16;22.80;25.00
72576;DHT22;60613;48.658;2.328;2023-03-01T16:57:42;22.80;25.00
72576;DHT22;60613;48.658;2.328;2023-03-01T17:00:10;22.80;25.00
72576;DHT22;60613;48.658;2.328;2023-03-01T17:02:38;22.80;24.90
72576;DHT22;60613;48.658;2.328;2023-03-01T17:05:05;22.80;24.90
72576;DHT22;60613;48.658;2.328;2023-03-01T17:07:31;22.80;24.90
72576;DHT22;60613;48.658;2.328;2023-03-01T17:10:02;22.90;25.00
72576;DHT22;60613;48.658;2.328;2023-03-01T17:12:28;22.90;24.90
72576;DHT22;60613;48.658;2.328;2023-03-01T17:14:54;22.90;25.10
72576;DHT22;60613;48.658;2.328;2023-03-01T17:17:20;22.90;25.00
72576;DHT22;60613;48.658;2.328;2023-03-01T17:19:45;22.90;25.10
72576;DHT22;60613;48.658;2.328;2023-03-01T17:22:11;22.90;24.90
72576;DHT22;60613;48.658;2.328;2023-03-01T17:24:39;22.90;25.00
72576;DHT22;60613;48.658;2.328;2023-03-01T17:27:06;22.90;25.10
72576;DHT22;60613;48.658;2.328;2023-03-01T17:29:32;22.90;24.90
72576;DHT22;60613;48.658;2.328;2023-03-01T17:31:58;22.90;25.00
72576;DHT22;60613;48.658;2.328;2023-03-01T17:34:24;22.90;25.40
72576;DHT22;60613;48.658;2.328;2023-03-01T17:36:50;22.90;25.30
72576;DHT22;60613;48.658;2.328;2023-03-01T17:39:17;22.90;25.10
72576;DHT22;60613;48.658;2.328;2023-03-01T17:41:46;22.90;25.10
72576;DHT22;60613;48.658;2.328;2023-03-01T17:44:11;22.90;24.90
72576;DHT22;60613;48.658;2.328;2023-03-01T17:46:37;22.90;25.00
72576;DHT22;60613;48.658;2.328;2023-03-01T17:49:03;22.90;25.00
72576;DHT22;60613;48.658;2.328;2023-03-01T17:51:28;22.90;25.00
72576;DHT22;60613;48.658;2.328;2023-03-01T17:53:54;22.90;25.10
72576;DHT22;60613;48.658;2.328;2023-03-01T17:56:20;22.90;25.10
72576;DHT22;60613;48.658;2.328;2023-03-01T17:58:45;22.90;25.20
72576;DHT22;60613;48.658;2.328;2023-03-01T18:01:13;22.90;25.10
72576;DHT22;60613;48.658;2.328;2023-03-01T18:03:40;22.80;25.20
72576;DHT22;60613;48.658;2.328;2023-03-01T18:06:20;22.70;25.30
72576;DHT22;60613;48.658;2.328;2023-03-01T18:08:46;22.70;25.30
72576;DHT22;60613;48.658;2.328;2023-03-01T18:11:13;22.60;25.30
72576;DHT22;60613;48.658;2.328;2023-03-01T18:13:39;22.60;25.30
72576;DHT22;60613;48.658;2.328;2023-03-01T18:16:07;22.60;25.10
72576;DHT22;60613;48.658;2.328;2023-03-01T18:18:33;22.50;25.20
72576;DHT22;60613;48.658;2.328;2023-03-01T18:20:59;22.50;25.10
72576;DHT22;60613;48.658;2.328;2023-03-01T18:23:26;22.40;24.90
72576;DHT22;60613;48.658;2.328;2023-03-01T18:25:57;22.40;24.90
72576;DHT22;60613;48.658;2.328;2023-03-01T18:28:23;22.40;24.80
72576;DHT22;60613;48.658;2.328;2023-03-01T18:31:04;22.40;24.70
72576;DHT22;60613;48.658;2.328;2023-03-01T18:33:33;22.30;24.60
72576;DHT22;60613;48.658;2.328;2023-03-01T18:36:00;22.30;24.50
72576;DHT22;60613;48.658;2.328;2023-03-01T18:38:26;22.30;24.60
72576;DHT22;60613;48.658;2.328;2023-03-01T18:40:53;22.30;24.50
72576;DHT22;60613;48.658;2.328;2023-03-01T18:43:20;22.30;24.50
72576;DHT22;60613;48.658;2.328;2023-03-01T18:45:46;22.30;24.50
72576;DHT22;60613;48.658;2.328;2023-03-01T18:48:12;22.30;24.40
72576;DHT22;60613;48.658;2.328;2023-03-01T18:50:41;22.30;24.50
72576;DHT22;60613;48.658;2.328;2023-03-01T18:53:07;22.20;24.30
72576;DHT22;60613;48.658;2.328;2023-03-01T18:55:37;22.20;24.30
72576;DHT22;60613;48.658;2.328;2023-03-01T18:58:04;22.20;24.30
72576;DHT22;60613;48.658;2.328;2023-03-01T19:00:33;22.20;24.30
72576;DHT22;60613;48.658;2.328;2023-03-01T19:03:00;22.20;24.20
72576;DHT22;60613;48.658;2.328;2023-03-01T19:05:26;22.20;24.20
72576;DHT22;60613;48.658;2.328;2023-03-01T19:07:52;22.20;24.20
72576;DHT22;60613;48.658;2.328;2023-03-01T19:10:18;22.30;24.20
72576;DHT22;60613;48.658;2.328;2023-03-01T19:12:44;22.20;24.10
72576;DHT22;60613;48.658;2.328;2023-03-01T19:15:10;22.20;24.10
72576;DHT22;60613;48.658;2.328;2023-03-01T19:17:36;22.20;24.20
72576;DHT22;60613;48.658;2.328;2023-03-01T19:20:01;22.20;24.10
72576;DHT22;60613;48.658;2.328;2023-03-01T19:22:27;22.20;24.10
72576;DHT22;60613;48.658;2.328;2023-03-01T19:24:53;22.20;24.20
72576;DHT22;60613;48.658;2.328;2023-03-01T19:27:18;22.20;24.20
72576;DHT22;60613;48.658;2.328;2023-03-01T19:29:44;22.20;24.10
72576;DHT22;60613;48.658;2.328;2023-03-01T19:32:10;22.20;24.10
72576;DHT22;60613;48.658;2.328;2023-03-01T19:34:35;22.20;24.10
72576;DHT22;60613;48.658;2.328;2023-03-01T19:37:03;22.20;24.20
72576;DHT22;60613;48.658;2.328;2023-03-01T19:39:28;22.20;24.20
72576;DHT22;60613;48.658;2.328;2023-03-01T19:41:54;22.20;24.30
72576;DHT22;60613;48.658;2.328;2023-03-01T19:44:20;22.20;24.10
72576;DHT22;60613;48.658;2.328;2023-03-01T19:46:51;22.20;24.20
72576;DHT22;60613;48.658;2.328;2023-03-01T19:49:18;22.20;24.10
72576;DHT22;60613;48.658;2.328;2023-03-01T19:51:44;22.20;24.20
72576;DHT22;60613;48.658;2.328;2023-03-01T19:54:09;22.20;24.10
72576;DHT22;60613;48.658;2.328;2023-03-01T19:56:36;22.20;24.10
72576;DHT22;60613;48.658;2.328;2023-03-01T19:59:03;22.20;24.10
72576;DHT22;60613;48.658;2.328;2023-03-01T20:01:29;22.20;24.10
72576;DHT22;60613;48.658;2.328;2023-03-01T20:03:57;22.20;24.00
72576;DHT22;60613;48.658;2.328;2023-03-01T20:06:23;22.20;24.10
72576;DHT22;60613;48.658;2.328;2023-03-01T20:08:50;22.20;24.00
72576;DHT22;60613;48.658;2.328;2023-03-01T20:11:17;22.20;24.00
72576;DHT22;60613;48.658;2.328;2023-03-01T20:13:44;22.20;24.00
72576;DHT22;60613;48.658;2.328;2023-03-01T20:16:10;22.20;24.00
72576;DHT22;60613;48.658;2.328;2023-03-01T20:18:39;22.20;24.00
72576;DHT22;60613;48.658;2.328;2023-03-01T20:21:04;22.20;24.00
72576;DHT22;60613;48.658;2.328;2023-03-01T20:23:30;22.20;24.00
72576;DHT22;60613;48.658;2.328;2023-03-01T20:26:09;22.20;24.00
72576;DHT22;60613;48.658;2.328;2023-03-01T20:28:39;22.20;23.90
72576;DHT22;60613;48.658;2.328;2023-03-01T20:31:07;22.20;23.90
72576;DHT22;60613;48.658;2.328;2023-03-01T20:33:33;22.20;23.90
72576;DHT22;60613;48.658;2.328;2023-03-01T20:35:59;22.20;23.80
72576;DHT22;60613;48.658;2.328;2023-03-01T20:38:25;22.20;23.90
72576;DHT22;60613;48.658;2.328;2023-03-01T20:40:57;22.20;23.80
72576;DHT22;60613;48.658;2.328;2023-03-01T20:43:23;22.20;23.80
72576;DHT22;60613;48.658;2.328;2023-03-01T20:45:48;22.20;23.90
72576;DHT22;60613;48.658;2.328;2023-03-01T20:48:14;22.20;23.80
72576;DHT22;60613;48.658;2.328;2023-03-01T20:50:40;22.20;23.70
72576;DHT22;60613;48.658;2.328;2023-03-01T20:53:06;22.20;23.80
72576;DHT22;60613;48.658;2.328;2023-03-01T20:55:32;22.20;23.80
72576;DHT22;60613;48.658;2.328;2023-03-01T20:57:58;22.20;23.70
72576;DHT22;60613;48.658;2.328;2023-03-01T21:00:23;22.20;23.70
72576;DHT22;60613;48.658;2.328;2023-03-01T21:02:49;22.20;23.80
72576;DHT22;60613;48.658;2.328;2023-03-01T21:05:15;22.20;23.60
72576;DHT22;60613;48.658;2.328;2023-03-01T21:07:40;22.20;23.60
72576;DHT22;60613;48.658;2.328;2023-03-01T21:10:08;22.20;23.70
72576;DHT22;60613;48.658;2.328;2023-03-01T21:12:34;22.20;23.60
72576;DHT22;60613;48.658;2.328;2023-03-01T21:14:59;22.30;23.60
72576;DHT22;60613;48.658;2.328;2023-03-01T21:17:25;22.30;23.60
72576;DHT22;60613;48.658;2.328;2023-03-01T21:19:50;22.20;23.60
72576;DHT22;60613;48.658;2.328;2023-03-01T21:22:16;22.30;24.10
72576;DHT22;60613;48.658;2.328;2023-03-01T21:24:42;22.30;23.60
72576;DHT22;60613;48.658;2.328;2023-03-01T21:27:08;22.30;23.50
72576;DHT22;60613;48.658;2.328;2023-03-01T21:29:39;22.30;23.60
72576;DHT22;60613;48.658;2.328;2023-03-01T21:32:05;22.30;23.60
72576;DHT22;60613;48.658;2.328;2023-03-01T21:34:32;22.40;23.60
72576;DHT22;60613;48.658;2.328;2023-03-01T21:36:57;22.50;23.60
72576;DHT22;60613;48.658;2.328;2023-03-01T21:39:23;22.50;23.60
72576;DHT22;60613;48.658;2.328;2023-03-01T21:41:54;22.50;23.60
72576;DHT22;60613;48.658;2.328;2023-03-01T21:44:20;22.50;23.60
72576;DHT22;60613;48.658;2.328;2023-03-01T21:46:48;22.60;23.60
72576;DHT22;60613;48.658;2.328;2023-03-01T21:49:13;22.60;23.50
72576;DHT22;60613;48.658;2.328;2023-03-01T21:51:39;22.60;23.50
72576;DHT22;60613;48.658;2.328;2023-03-01T21:54:05;22.60;23.40
72576;DHT22;60613;48.658;2.328;2023-03-01T21:56:32;22.60;23.60
72576;DHT22;60613;48.658;2.328;2023-03-01T21:59:00;22.60;23.50
